createdAt,value
2024-01-18T00:00:50.335Z,-1.94
2024-01-18T00:03:40.703Z,-1.96
2024-01-18T00:06:11.048Z,-2.00
2024-01-18T00:08:40.464Z,-2.01
2024-01-18T00:11:09.151Z,-2.01
2024-01-18T00:13:38.334Z,-2.01
2024-01-18T00:16:06.564Z,-2.03
2024-01-18T00:18:35.000Z,-2.04
2024-01-18T00:21:04.930Z,-2.07
2024-01-18T00:23:33.176Z,-2.04
2024-01-18T00:26:01.586Z,-2.07
2024-01-18T00:28:30.442Z,-2.11
2024-01-18T00:30:59.102Z,-2.11
2024-01-18T00:33:27.420Z,-2.11
2024-01-18T00:35:56.050Z,-2.14
2024-01-18T00:38:43.986Z,-2.18
2024-01-18T00:41:12.413Z,-2.18
2024-01-18T00:43:40.603Z,-2.19
2024-01-18T00:46:08.998Z,-2.21
2024-01-18T00:48:37.678Z,-2.23
2024-01-18T00:51:06.140Z,-2.24
2024-01-18T00:53:34.409Z,-2.23
2024-01-18T00:56:02.646Z,-2.23
2024-01-18T00:58:31.119Z,-2.23
2024-01-18T01:01:00.334Z,-2.24
2024-01-18T01:03:28.850Z,-2.23
2024-01-18T01:05:57.280Z,-2.24
2024-01-18T01:08:25.523Z,-2.26
2024-01-18T01:10:53.759Z,-2.28
2024-01-18T01:13:22.392Z,-2.31
2024-01-18T01:15:50.677Z,-2.35
2024-01-18T01:18:20.573Z,-2.36
2024-01-18T01:20:56.064Z,-2.42
2024-01-18T01:23:28.669Z,-2.46
2024-01-18T01:25:57.101Z,-2.53
2024-01-18T01:28:25.318Z,-2.53
2024-01-18T01:30:53.577Z,-2.54
2024-01-18T01:33:22.063Z,-2.58
2024-01-18T01:35:50.783Z,-2.61
2024-01-18T01:38:20.678Z,-2.65
2024-01-18T01:40:49.759Z,-2.68
2024-01-18T01:43:18.797Z,-2.74
2024-01-18T01:45:47.549Z,-2.78
2024-01-18T01:48:16.517Z,-2.82
2024-01-18T01:50:45.282Z,-2.84
2024-01-18T01:53:14.950Z,-2.87
2024-01-18T01:56:07.380Z,-2.95
2024-01-18T01:58:39.169Z,-2.96
2024-01-18T02:01:10.284Z,-3.01
2024-01-18T02:03:39.692Z,-3.04
2024-01-18T02:06:09.157Z,-3.05
2024-01-18T02:08:38.752Z,-3.12
2024-01-18T02:11:08.262Z,-3.15
2024-01-18T02:13:39.191Z,-3.17
2024-01-18T02:16:07.689Z,-3.20
2024-01-18T02:18:37.321Z,-3.23
2024-01-18T02:21:10.445Z,-3.26
2024-01-18T02:24:07.016Z,-3.25
2024-01-18T02:26:43.778Z,-3.25
2024-01-18T02:29:12.031Z,-3.24
2024-01-18T02:31:42.913Z,-3.28
2024-01-18T02:34:14.115Z,-3.30
2024-01-18T02:36:42.425Z,-3.31
2024-01-18T02:39:11.048Z,-3.30
2024-01-18T02:41:40.233Z,-3.31
2024-01-18T02:44:09.172Z,-3.36
2024-01-18T02:46:37.391Z,-3.39
2024-01-18T02:49:06.379Z,-3.39
2024-01-18T02:51:35.303Z,-3.44
2024-01-18T02:54:03.716Z,-3.48
2024-01-18T02:56:32.265Z,-3.46
2024-01-18T02:59:29.265Z,-3.49
2024-01-18T03:01:59.059Z,-3.50
2024-01-18T03:04:27.325Z,-3.55
2024-01-18T03:06:56.003Z,-3.57
2024-01-18T03:09:32.146Z,-3.60
2024-01-18T03:12:01.073Z,-3.60
2024-01-18T03:14:29.283Z,-3.59
2024-01-18T03:16:57.597Z,-3.62
2024-01-18T03:19:33.955Z,-3.65
2024-01-18T03:22:02.982Z,-3.68
2024-01-18T03:24:32.077Z,-3.70
2024-01-18T03:27:00.407Z,-3.73
2024-01-18T03:29:41.288Z,-3.73
2024-01-18T03:32:09.947Z,-3.76
2024-01-18T03:34:38.558Z,-3.79
2024-01-18T03:37:06.786Z,-3.81
2024-01-18T03:39:39.157Z,-3.81
2024-01-18T03:42:09.129Z,-3.81
2024-01-18T03:44:37.431Z,-3.82
2024-01-18T03:47:05.779Z,-3.83
2024-01-18T03:49:34.481Z,-3.88
2024-01-18T03:52:02.714Z,-3.92
2024-01-18T03:54:30.933Z,-3.91
2024-01-18T03:56:59.302Z,-3.92
2024-01-18T03:59:36.372Z,-3.89
2024-01-18T04:02:04.608Z,-3.88
2024-01-18T04:04:33.681Z,-3.89
2024-01-18T04:07:02.057Z,-3.89
2024-01-18T04:09:49.281Z,-3.89
2024-01-18T04:12:19.638Z,-3.89
2024-01-18T04:14:47.940Z,-3.89
2024-01-18T04:17:16.789Z,-3.89
2024-01-18T04:19:45.073Z,-3.91
2024-01-18T04:22:13.359Z,-3.92
2024-01-18T04:24:42.555Z,-3.92
2024-01-18T04:27:10.870Z,-4.00
2024-01-18T04:29:39.433Z,-4.04
2024-01-18T04:32:07.663Z,-4.07
2024-01-18T04:34:36.279Z,-4.12
2024-01-18T04:37:04.946Z,-4.12
2024-01-18T04:39:34.797Z,-4.11
2024-01-18T04:42:03.082Z,-4.12
2024-01-18T04:45:04.288Z,-4.15
2024-01-18T04:47:32.592Z,-4.15
2024-01-18T04:50:02.824Z,-4.15
2024-01-18T04:52:31.774Z,-4.18
2024-01-18T04:55:04.347Z,-4.18
2024-01-18T04:57:37.099Z,-4.20
2024-01-18T05:00:11.901Z,-4.21
2024-01-18T05:02:40.866Z,-4.21
2024-01-18T05:05:11.397Z,-4.22
2024-01-18T05:07:43.800Z,-4.25
2024-01-18T05:10:13.346Z,-4.28
2024-01-18T05:13:01.138Z,-4.33
2024-01-18T05:15:29.464Z,-4.32
2024-01-18T05:18:02.097Z,-4.34
2024-01-18T05:20:30.808Z,-4.34
2024-01-18T05:22:59.085Z,-4.33
2024-01-18T05:25:27.802Z,-4.35
2024-01-18T05:27:58.831Z,-4.39
2024-01-18T05:30:27.088Z,-4.42
2024-01-18T05:32:55.922Z,-4.42
2024-01-18T05:35:24.137Z,-4.43
2024-01-18T05:38:00.836Z,-4.45
2024-01-18T05:40:29.056Z,-4.46
2024-01-18T05:42:57.225Z,-4.53
2024-01-18T05:45:25.622Z,-4.56
2024-01-18T05:48:24.323Z,-4.55
2024-01-18T05:50:52.558Z,-4.54
2024-01-18T05:53:21.364Z,-4.52
2024-01-18T05:55:50.377Z,-4.52
2024-01-18T05:58:20.358Z,-4.51
2024-01-18T06:00:49.625Z,-4.52
2024-01-18T06:03:20.878Z,-4.52
2024-01-18T06:05:49.245Z,-4.50
2024-01-18T06:08:18.982Z,-4.51
2024-01-18T06:10:47.617Z,-4.51
2024-01-18T06:13:16.032Z,-4.51
2024-01-18T06:15:48.036Z,-4.53
2024-01-18T06:18:16.418Z,-4.58
2024-01-18T06:20:45.657Z,-4.60
2024-01-18T06:23:24.937Z,-4.62
2024-01-18T06:25:53.113Z,-4.65
2024-01-18T06:28:21.605Z,-4.65
2024-01-18T06:30:51.184Z,-4.65
2024-01-18T06:33:22.018Z,-4.63
2024-01-18T06:35:50.602Z,-4.62
2024-01-18T06:38:22.958Z,-4.64
2024-01-18T06:40:51.537Z,-4.65
2024-01-18T06:43:21.165Z,-4.67
2024-01-18T06:45:55.938Z,-4.69
2024-01-18T06:48:25.476Z,-4.71
2024-01-18T06:50:53.755Z,-4.70
2024-01-18T06:53:22.023Z,-4.72
2024-01-18T06:55:51.057Z,-4.72
2024-01-18T06:58:35.839Z,-4.74
2024-01-18T07:01:04.158Z,-4.76
2024-01-18T07:03:32.589Z,-4.79
2024-01-18T07:06:01.629Z,-4.82
2024-01-18T07:08:31.432Z,-4.82
2024-01-18T07:10:59.333Z,-4.85
2024-01-18T07:13:29.661Z,-4.88
2024-01-18T07:15:57.942Z,-4.91
2024-01-18T07:18:26.227Z,-4.93
2024-01-18T07:20:54.583Z,-4.91
2024-01-18T07:23:22.821Z,-4.92
2024-01-18T07:25:52.417Z,-4.92
2024-01-18T07:28:21.237Z,-4.93
2024-01-18T07:30:50.087Z,-4.97
2024-01-18T07:33:39.873Z,-4.94
2024-01-18T07:36:08.694Z,-4.94
2024-01-18T07:38:36.969Z,-4.94
2024-01-18T07:41:05.869Z,-4.94
2024-01-18T07:43:34.225Z,-4.92
2024-01-18T07:46:02.512Z,-4.92
2024-01-18T07:48:34.608Z,-4.89
2024-01-18T07:51:02.959Z,-4.87
2024-01-18T07:53:31.209Z,-4.88
2024-01-18T07:56:00.091Z,-4.87
2024-01-18T07:58:28.645Z,-4.85
2024-01-18T08:00:56.955Z,-4.81
2024-01-18T08:03:25.374Z,-4.76
2024-01-18T08:05:53.668Z,-4.73
2024-01-18T08:08:44.340Z,-4.71
2024-01-18T08:11:19.971Z,-4.64
2024-01-18T08:13:48.714Z,-4.62
2024-01-18T08:16:17.201Z,-4.63
2024-01-18T08:18:49.160Z,-4.61
2024-01-18T08:21:18.737Z,-4.58
2024-01-18T08:23:49.543Z,-4.55
2024-01-18T08:26:19.731Z,-4.47
2024-01-18T08:28:48.502Z,-4.44
2024-01-18T08:31:18.109Z,-4.36
2024-01-18T08:33:46.369Z,-4.33
2024-01-18T08:36:18.392Z,-4.26
2024-01-18T08:38:47.432Z,-4.21
2024-01-18T08:41:15.640Z,-4.16
2024-01-18T08:43:53.223Z,-4.10
2024-01-18T08:46:21.455Z,-4.07
2024-01-18T08:48:49.737Z,-4.02
2024-01-18T08:51:20.309Z,-3.94
2024-01-18T08:53:50.049Z,-3.88
2024-01-18T08:56:27.103Z,-3.82
2024-01-18T08:58:59.506Z,-3.79
2024-01-18T09:01:28.131Z,-3.73
2024-01-18T09:03:56.414Z,-3.66
2024-01-18T09:06:24.669Z,-3.59
2024-01-18T09:08:55.123Z,-3.54
2024-01-18T09:11:23.440Z,-3.47
2024-01-18T09:13:52.377Z,-3.40
2024-01-18T09:16:20.719Z,-3.33
2024-01-18T09:19:13.499Z,-3.26
2024-01-18T09:21:46.729Z,-3.20
2024-01-18T09:24:16.401Z,-3.14
2024-01-18T09:26:44.682Z,-3.06
2024-01-18T09:29:15.552Z,-3.00
2024-01-18T09:31:44.251Z,-2.92
2024-01-18T09:34:12.638Z,-2.82
2024-01-18T09:36:42.126Z,-2.65
2024-01-18T09:39:17.548Z,-1.85
2024-01-18T09:41:54.617Z,-0.53
2024-01-18T09:44:27.283Z,-0.68
2024-01-18T09:47:18.480Z,-0.06
2024-01-18T09:49:52.330Z,2.21
2024-01-18T09:52:21.932Z,6.68
2024-01-18T09:54:54.759Z,10.01
2024-01-18T09:57:33.864Z,9.43
2024-01-18T10:00:06.674Z,10.13
2024-01-18T10:02:39.455Z,10.72
2024-01-18T10:05:11.583Z,10.09
2024-01-18T10:07:40.490Z,10.54
2024-01-18T10:10:19.590Z,12.01
2024-01-18T10:12:59.453Z,13.61
2024-01-18T10:15:34.418Z,11.22
2024-01-18T10:18:05.488Z,12.22
2024-01-18T10:20:35.285Z,12.08
2024-01-18T10:23:04.742Z,9.48
2024-01-18T10:25:33.683Z,8.39
2024-01-18T10:28:04.576Z,11.99
2024-01-18T10:30:37.960Z,14.74
2024-01-18T10:33:06.514Z,16.17
2024-01-18T10:35:35.173Z,16.95
2024-01-18T10:38:05.474Z,17.50
2024-01-18T10:40:44.469Z,18.02
2024-01-18T10:43:52.678Z,18.67
2024-01-18T10:46:22.470Z,18.61
2024-01-18T10:48:53.878Z,15.99
2024-01-18T10:51:23.909Z,14.79
2024-01-18T10:53:57.342Z,11.22
2024-01-18T10:56:30.850Z,9.25
2024-01-18T10:58:59.478Z,8.13
2024-01-18T11:01:28.975Z,7.67
2024-01-18T11:03:57.514Z,6.18
2024-01-18T11:06:27.767Z,4.96
2024-01-18T11:08:58.458Z,4.30
2024-01-18T11:11:50.753Z,3.85
2024-01-18T11:14:20.817Z,3.30
2024-01-18T11:16:50.849Z,3.29
2024-01-18T11:19:39.641Z,3.48
2024-01-18T11:22:11.512Z,3.12
2024-01-18T11:24:42.010Z,2.99
2024-01-18T11:27:27.818Z,3.28
2024-01-18T11:29:56.999Z,3.55
2024-01-18T11:32:59.427Z,3.58
2024-01-18T11:35:28.510Z,3.59
2024-01-18T11:38:25.564Z,3.55
2024-01-18T11:41:06.632Z,3.49
2024-01-18T11:44:02.852Z,3.32
2024-01-18T11:47:00.224Z,3.23
2024-01-18T11:49:30.222Z,3.19
2024-01-18T11:51:59.594Z,3.27
2024-01-18T11:54:35.429Z,3.34
2024-01-18T11:57:05.232Z,3.41
2024-01-18T11:59:38.387Z,3.42
2024-01-18T12:02:08.023Z,3.33
2024-01-18T12:04:47.318Z,3.41
2024-01-18T12:07:18.738Z,3.41
2024-01-18T12:09:48.782Z,3.43
2024-01-18T12:12:22.547Z,3.48
2024-01-18T12:15:09.899Z,3.46
2024-01-18T12:17:38.658Z,3.54
2024-01-18T12:20:15.692Z,3.49
2024-01-18T12:22:46.718Z,3.52
2024-01-18T12:25:14.994Z,3.54
2024-01-18T12:27:44.708Z,3.58
2024-01-18T12:30:15.703Z,3.69
2024-01-18T12:32:44.276Z,3.90
2024-01-18T12:35:23.331Z,3.72
2024-01-18T12:37:52.515Z,3.38
2024-01-18T12:40:20.777Z,3.12
2024-01-18T12:43:26.410Z,3.04
2024-01-18T12:45:56.065Z,3.22
2024-01-18T12:48:25.407Z,3.27
2024-01-18T12:50:54.860Z,3.08
2024-01-18T12:53:46.758Z,2.87
2024-01-18T12:56:18.390Z,2.98
2024-01-18T12:58:47.685Z,3.12
2024-01-18T13:01:33.261Z,3.25
2024-01-18T13:04:29.420Z,3.27
2024-01-18T13:07:03.173Z,3.34
2024-01-18T13:09:35.704Z,3.36
2024-01-18T13:12:06.104Z,3.30
2024-01-18T13:14:37.532Z,3.32
2024-01-18T13:17:06.662Z,3.35
2024-01-18T13:19:35.262Z,3.39
2024-01-18T13:22:05.609Z,3.48
2024-01-18T13:24:33.980Z,3.55
2024-01-18T13:27:06.265Z,3.53
2024-01-18T13:29:35.514Z,3.42
2024-01-18T13:32:25.652Z,3.20
2024-01-18T13:34:55.157Z,3.15
2024-01-18T13:37:30.676Z,3.12
2024-01-18T13:40:03.436Z,3.07
2024-01-18T13:42:31.739Z,3.02
2024-01-18T13:45:01.320Z,2.96
2024-01-18T13:47:29.646Z,2.90
2024-01-18T13:49:57.899Z,2.81
2024-01-18T13:52:30.084Z,2.78
2024-01-18T13:54:59.124Z,2.73
2024-01-18T13:57:34.352Z,2.73
2024-01-18T14:02:52.163Z,2.65
2024-01-18T14:05:20.947Z,2.64
2024-01-18T14:07:49.414Z,2.62
2024-01-18T14:10:19.616Z,2.58
2024-01-18T14:12:47.852Z,2.55
2024-01-18T14:15:17.654Z,2.56
2024-01-18T14:17:46.013Z,2.63
2024-01-18T14:20:15.529Z,2.60
2024-01-18T14:22:46.213Z,2.62
2024-01-18T14:25:15.071Z,2.55
2024-01-18T14:27:43.829Z,2.50
2024-01-18T14:30:12.618Z,2.41
2024-01-18T14:32:42.114Z,2.37
2024-01-18T14:38:02.153Z,2.86
2024-01-18T14:40:30.344Z,4.49
2024-01-18T14:43:02.044Z,5.74
2024-01-18T14:45:31.994Z,5.19
2024-01-18T14:48:33.301Z,4.72
2024-01-18T14:51:01.909Z,5.44
2024-01-18T14:53:32.483Z,5.12
2024-01-18T14:56:00.759Z,4.12
2024-01-18T14:58:44.978Z,3.35
2024-01-18T15:01:19.004Z,2.88
2024-01-18T15:03:52.662Z,2.55
2024-01-18T15:06:23.435Z,2.28
2024-01-18T15:08:51.782Z,2.06
2024-01-18T15:11:21.294Z,1.89
2024-01-18T15:13:49.549Z,1.74
2024-01-18T15:16:19.393Z,1.56
2024-01-18T15:18:51.569Z,1.45
2024-01-18T15:21:25.176Z,1.35
2024-01-18T15:23:53.439Z,1.22
2024-01-18T15:26:21.696Z,1.14
2024-01-18T15:28:49.901Z,1.04
2024-01-18T15:31:19.709Z,0.98
2024-01-18T15:33:48.013Z,0.86
2024-01-18T15:36:16.261Z,0.76
2024-01-18T15:39:01.947Z,0.65
2024-01-18T15:41:30.154Z,0.61
2024-01-18T15:44:01.701Z,0.54
2024-01-18T15:46:30.128Z,0.46
2024-01-18T15:49:01.214Z,0.39
2024-01-18T15:51:29.968Z,0.29
2024-01-18T15:53:58.614Z,0.22
2024-01-18T15:56:28.297Z,0.12
2024-01-18T15:58:56.897Z,0.06
2024-01-18T16:01:46.625Z,-0.05
2024-01-18T16:04:33.970Z,-0.15
2024-01-18T16:07:25.066Z,-0.22
2024-01-18T16:09:57.936Z,-0.33
2024-01-18T16:12:26.400Z,-0.44
2024-01-18T16:15:02.708Z,-0.50
2024-01-18T16:17:31.045Z,-0.57
2024-01-18T16:20:00.988Z,-0.65
2024-01-18T16:22:29.989Z,-0.72
2024-01-18T16:25:02.440Z,-0.79
2024-01-18T16:27:30.749Z,-0.83
2024-01-18T16:30:03.548Z,-0.91
2024-01-18T16:32:37.600Z,-0.97
2024-01-18T16:35:25.136Z,-1.01
2024-01-18T16:37:56.111Z,-1.04
2024-01-18T16:40:24.396Z,-1.10
2024-01-18T16:42:52.722Z,-1.16
2024-01-18T16:45:21.172Z,-1.17
2024-01-18T16:47:49.561Z,-1.18
2024-01-18T16:50:19.268Z,-1.24
2024-01-18T16:52:47.792Z,-1.31
2024-01-18T16:55:18.031Z,-1.35
2024-01-18T17:00:17.986Z,-1.44
2024-01-18T17:02:47.576Z,-1.47
2024-01-18T17:05:18.109Z,-1.49
2024-01-18T17:07:46.383Z,-1.53
2024-01-18T17:10:28.953Z,-1.55
2024-01-18T17:12:57.559Z,-1.58
2024-01-18T17:15:32.733Z,-1.59
2024-01-18T17:18:01.056Z,-1.64
2024-01-18T17:20:30.975Z,-1.67
2024-01-18T17:23:00.788Z,-1.69
2024-01-18T17:25:41.802Z,-1.73
2024-01-18T17:28:10.164Z,-1.73
2024-01-18T17:30:38.446Z,-1.76
2024-01-18T17:33:07.397Z,-1.81
2024-01-18T17:35:37.211Z,-1.83
2024-01-18T17:38:34.318Z,-1.83
2024-01-18T17:41:46.818Z,-1.85
2024-01-18T17:44:32.581Z,-1.85
2024-01-18T17:47:01.237Z,-1.89
2024-01-18T17:49:36.360Z,-1.90
2024-01-18T17:52:05.357Z,-1.92
2024-01-18T17:54:33.580Z,-1.93
2024-01-18T17:57:01.974Z,-1.96
2024-01-18T17:59:48.975Z,-2.00
2024-01-18T18:02:24.453Z,-2.03
2024-01-18T18:04:53.157Z,-2.05
2024-01-18T18:07:22.420Z,-2.11
2024-01-18T18:09:50.692Z,-2.16
2024-01-18T18:12:21.694Z,-2.18
2024-01-18T18:14:50.908Z,-2.21
2024-01-18T18:17:23.362Z,-2.22
2024-01-18T18:19:51.856Z,-2.23
2024-01-18T18:22:24.094Z,-2.27
2024-01-18T18:24:52.838Z,-2.28
2024-01-18T18:27:58.998Z,-2.31
2024-01-18T18:30:31.811Z,-2.35
2024-01-18T18:35:52.055Z,-2.43
2024-01-18T18:38:27.491Z,-2.45
2024-01-18T18:41:01.153Z,-2.49
2024-01-18T18:43:30.506Z,-2.51
2024-01-18T18:46:00.203Z,-2.53
2024-01-18T18:48:52.482Z,-2.56
2024-01-18T18:51:23.252Z,-2.58
2024-01-18T18:53:53.736Z,-2.60
2024-01-18T18:56:23.615Z,-2.59
2024-01-18T18:58:52.163Z,-2.62
2024-01-18T19:01:20.556Z,-2.64
2024-01-18T19:03:48.899Z,-2.65
2024-01-18T19:06:18.513Z,-2.67
2024-01-18T19:08:46.985Z,-2.69
2024-01-18T19:11:15.263Z,-2.69
2024-01-18T19:13:43.497Z,-2.69
2024-01-18T19:16:13.397Z,-2.73
2024-01-18T19:18:43.728Z,-2.73
2024-01-18T19:21:16.003Z,-2.71
2024-01-18T19:24:07.098Z,-2.74
2024-01-18T19:26:35.327Z,-2.74
2024-01-18T19:29:03.794Z,-2.79
2024-01-18T19:31:32.682Z,-2.83
2024-01-18T19:34:01.300Z,-2.84
2024-01-18T19:36:29.573Z,-2.84
2024-01-18T19:38:58.255Z,-2.86
2024-01-18T19:41:29.035Z,-2.85
2024-01-18T19:43:57.415Z,-2.82
2024-01-18T19:46:25.627Z,-2.82
2024-01-18T19:48:55.850Z,-2.82
2024-01-18T19:51:29.398Z,-2.82
2024-01-18T19:53:57.809Z,-2.80
2024-01-18T19:56:26.055Z,-2.80
2024-01-18T19:59:15.009Z,-2.79
2024-01-18T20:01:43.292Z,-2.78
2024-01-18T20:04:11.539Z,-2.77
2024-01-18T20:06:39.927Z,-2.75
2024-01-18T20:09:08.335Z,-2.74
2024-01-18T20:11:37.024Z,-2.73
2024-01-18T20:14:05.525Z,-2.73
2024-01-18T20:16:34.696Z,-2.73
2024-01-18T20:19:03.640Z,-2.75
2024-01-18T20:21:33.191Z,-2.74
2024-01-18T20:24:02.371Z,-2.78
2024-01-18T20:26:30.993Z,-2.79
2024-01-18T20:28:59.966Z,-2.80
2024-01-18T20:31:28.330Z,-2.84
2024-01-18T20:37:21.925Z,-2.88
2024-01-18T20:39:50.291Z,-2.91
2024-01-18T20:42:24.272Z,-2.91
2024-01-18T20:44:52.835Z,-2.92
2024-01-18T20:47:23.543Z,-2.96
2024-01-18T20:49:51.808Z,-2.98
2024-01-18T20:52:26.973Z,-2.98
2024-01-18T20:54:55.449Z,-2.98
2024-01-18T20:57:24.810Z,-3.01
2024-01-18T20:59:53.081Z,-3.05
2024-01-18T21:02:44.084Z,-3.08
2024-01-18T21:05:12.503Z,-3.09
2024-01-18T21:07:41.017Z,-3.09
2024-01-18T21:10:13.565Z,-3.09
2024-01-18T21:12:43.166Z,-3.08
2024-01-18T21:15:11.428Z,-3.08
2024-01-18T21:17:41.299Z,-3.06
2024-01-18T21:20:12.101Z,-3.08
2024-01-18T21:22:40.663Z,-3.07
2024-01-18T21:25:09.027Z,-3.08
2024-01-18T21:27:37.229Z,-3.10
2024-01-18T21:30:06.628Z,-3.09
2024-01-18T21:32:35.505Z,-3.03
2024-01-18T21:35:04.076Z,-2.96
2024-01-18T21:37:49.669Z,-2.92
2024-01-18T21:40:20.967Z,-2.88
2024-01-18T21:42:51.008Z,-2.86
2024-01-18T21:45:23.660Z,-2.87
2024-01-18T21:47:56.828Z,-2.86
2024-01-18T21:50:26.828Z,-2.80
2024-01-18T21:52:55.898Z,-2.78
2024-01-18T21:55:24.586Z,-2.76
2024-01-18T21:57:54.358Z,-2.71
2024-01-18T22:00:23.608Z,-2.72
2024-01-18T22:02:56.553Z,-2.80
2024-01-18T22:05:53.878Z,-2.81
2024-01-18T22:08:22.880Z,-2.75
2024-01-18T22:10:51.205Z,-2.75
2024-01-18T22:13:19.963Z,-2.77
2024-01-18T22:15:48.222Z,-2.71
2024-01-18T22:18:18.822Z,-2.66
2024-01-18T22:20:47.828Z,-2.64
2024-01-18T22:23:17.668Z,-2.64
2024-01-18T22:25:46.205Z,-2.67
2024-01-18T22:28:15.015Z,-2.68
2024-01-18T22:30:43.636Z,-2.65
2024-01-18T22:33:14.691Z,-2.63
2024-01-18T22:35:43.253Z,-2.57
2024-01-18T22:38:11.643Z,-2.54
2024-01-18T22:40:59.811Z,-2.49
2024-01-18T22:43:28.014Z,-2.50
2024-01-18T22:45:56.289Z,-2.52
2024-01-18T22:48:32.657Z,-2.52
2024-01-18T22:51:01.001Z,-2.55
2024-01-18T22:53:29.883Z,-2.60
2024-01-18T22:55:58.125Z,-2.58
2024-01-18T22:58:26.415Z,-2.58
2024-01-18T23:00:54.960Z,-2.59
2024-01-18T23:03:23.376Z,-2.59
2024-01-18T23:05:53.449Z,-2.57
2024-01-18T23:08:23.790Z,-2.53
2024-01-18T23:10:52.876Z,-2.49
2024-01-18T23:13:21.087Z,-2.47
2024-01-18T23:16:15.537Z,-2.50
2024-01-18T23:18:44.450Z,-2.50
2024-01-18T23:21:12.706Z,-2.52
2024-01-18T23:23:43.052Z,-2.54
2024-01-18T23:26:11.360Z,-2.51
2024-01-18T23:28:39.589Z,-2.52
2024-01-18T23:31:07.766Z,-2.55
2024-01-18T23:33:36.797Z,-2.55
2024-01-18T23:36:05.737Z,-2.54
2024-01-18T23:38:34.856Z,-2.51
2024-01-18T23:41:03.230Z,-2.48
2024-01-18T23:43:32.211Z,-2.48
2024-01-18T23:46:02.209Z,-2.46
2024-01-18T23:48:31.040Z,-2.49
2024-01-18T23:51:32.121Z,-2.42
2024-01-18T23:54:00.343Z,-2.37
2024-01-18T23:56:29.755Z,-2.35
2024-01-18T23:58:59.711Z,-2.31
